Time;durP1;ratioP1;P1;durP2;ratioP2;P2;SDS_P1;SDS_P2;PMS_P1;PMS_P2;Temp;Humidity;BMP_temperature;BMP_pressure;BME280_temperature;BME280_humidity;BME280_pressure;Samples;Min_cycle;Max_cycle;Signal;HPM_P1;HPM_P2
2023/08/28 00:00:12;;;;;;;4.45;1.85;;;;;;;15.70;72.47;101011.94;7391845;19;20018;-71
2023/08/28 00:02:40;;;;;;;2.70;1.88;;;;;;;15.74;72.14;101006.19;7392322;19;20015;-73
2023/08/28 00:05:07;;;;;;;6.82;2.00;;;;;;;15.68;72.21;101005.88;7390366;19;20086;-73
2023/08/28 00:07:35;;;;;;;4.15;1.83;;;;;;;15.58;72.80;101000.53;7390448;19;20015;-73
2023/08/28 00:10:03;;;;;;;4.88;2.05;;;;;;;15.70;72.54;101001.25;7387947;19;20022;-72
2023/08/28 00:12:34;;;;;;;5.05;2.13;;;;;;;15.72;72.36;101012.63;7388923;19;20011;-72
2023/08/28 00:15:01;;;;;;;5.05;2.20;;;;;;;15.73;72.24;101011.66;7389211;19;20022;-72
2023/08/28 00:17:30;;;;;;;8.10;2.47;;;;;;;15.77;72.20;101015.75;7389242;19;20499;-73
2023/08/28 00:19:58;;;;;;;4.30;2.22;;;;;;;15.80;72.27;101021.66;7389319;19;20061;-73
2023/08/28 00:22:25;;;;;;;4.65;2.22;;;;;;;15.78;72.43;101017.44;7389231;19;20019;-73
2023/08/28 00:24:53;;;;;;;6.53;2.40;;;;;;;15.75;72.43;101013.19;7391418;19;20018;-72
2023/08/28 00:27:20;;;;;;;5.47;1.88;;;;;;;15.78;72.51;101017.44;7389805;19;20017;-72
2023/08/28 00:29:47;;;;;;;4.60;2.30;;;;;;;15.82;72.33;101003.66;7390777;19;20040;-72
2023/08/28 00:32:15;;;;;;;5.30;2.45;;;;;;;15.75;72.63;100991.84;7388498;19;20063;-72
2023/08/28 00:34:42;;;;;;;4.45;2.15;;;;;;;15.71;72.78;100977.09;7387278;19;20361;-72
2023/08/28 00:37:13;;;;;;;7.47;2.00;;;;;;;15.63;73.17;100978.75;7390340;19;20088;-72
2023/08/28 00:39:41;;;;;;;4.32;1.95;;;;;;;15.71;73.20;100985.09;7390835;19;20022;-72
2023/08/28 00:42:09;;;;;;;6.25;2.30;;;;;;;15.71;73.05;100985.09;7388701;19;20035;-72
2023/08/28 00:44:36;;;;;;;4.82;2.30;;;;;;;15.68;72.96;100982.72;7390910;19;20345;-72
2023/08/28 00:47:06;;;;;;;5.70;2.15;;;;;;;15.72;73.07;101005.50;7393102;19;20018;-72
2023/08/28 00:49:34;;;;;;;3.25;2.22;;;;;;;15.70;73.25;101001.25;7391654;19;20025;-72
2023/08/28 00:52:02;;;;;;;6.38;2.30;;;;;;;15.62;73.61;101003.75;7387766;19;20022;-72
2023/08/28 00:54:30;;;;;;;6.95;2.55;;;;;;;15.64;73.52;101005.28;7388909;19;20018;-72
2023/08/28 00:56:58;;;;;;;4.47;2.17;;;;;;;15.66;73.49;101014.06;7390776;19;20396;-73
2023/08/28 00:59:27;;;;;;;5.35;2.42;;;;;;;15.70;73.33;101020.78;7394996;19;20438;-72
2023/08/28 01:01:55;;;;;;;5.40;2.30;;;;;;;15.62;73.57;101017.13;7394433;19;20476;-71
2023/08/28 01:04:24;;;;;;;6.18;2.10;;;;;;;15.60;73.66;101018.06;7399454;19;20376;-71
2023/08/28 01:07:05;;;;;;;3.97;2.00;;;;;;;15.66;73.61;101019.38;7398370;19;20018;-71
2023/08/28 01:09:39;;;;;;;4.78;2.40;;;;;;;15.59;73.66;101019.06;7401451;19;20026;-72
2023/08/28 01:12:17;;;;;;;7.13;2.58;;;;;;;15.57;73.77;101010.38;7397432;19;20039;-72
2023/08/28 01:15:02;;;;;;;5.80;2.60;;;;;;;15.56;74.12;101005.16;7399394;19;20021;-72
2023/08/28 01:17:31;;;;;;;4.97;2.53;;;;;;;15.66;73.77;100992.69;7398849;19;20014;-72
2023/08/28 01:19:59;;;;;;;5.05;2.40;;;;;;;15.62;73.73;100985.06;7397973;19;20509;-71
2023/08/28 01:23:07;;;;;;;6.07;2.22;;;;;;;15.63;73.98;100989.41;7399906;19;20018;-71
2023/08/28 01:25:36;;;;;;;5.35;2.10;;;;;;;15.56;74.50;100987.28;7399841;19;20368;-73
2023/08/28 01:28:03;;;;;;;6.72;2.78;;;;;;;15.64;74.19;100989.28;7397791;19;20503;-73
2023/08/28 01:30:31;;;;;;;5.57;2.30;;;;;;;15.64;74.12;100983.94;7398791;19;20381;-73
2023/08/28 01:32:58;;;;;;;6.60;2.45;;;;;;;15.71;74.03;100985.09;7397244;19;20646;-72
2023/08/28 01:35:29;;;;;;;5.25;2.33;;;;;;;15.73;74.10;101006.34;7399713;19;20035;-72
2023/08/28 01:38:15;;;;;;;4.97;2.25;;;;;;;15.62;74.48;101001.94;7399541;19;20043;-72
2023/08/28 01:40:49;;;;;;;7.00;2.63;;;;;;;15.62;74.57;100998.44;7394529;19;20556;-72
2023/08/28 01:43:20;;;;;;;;;;;;;;;15.32;75.74;100995.72;7393834;19;20030;-72
2023/08/28 01:45:50;;;;;;;6.93;2.20;;;;;;;15.46;75.15;101001.66;7394160;19;19985;-72
2023/08/28 01:48:18;;;;;;;4.47;2.15;;;;;;;15.62;74.85;101001.94;7394098;19;20019;-72
2023/08/28 01:50:46;;;;;;;2.88;1.77;;;;;;;15.65;74.69;101012.38;7392894;19;20074;-72
2023/08/28 01:53:13;;;;;;;5.00;1.95;;;;;;;15.59;75.04;101015.56;7395005;19;20378;-73
2023/08/28 01:56:08;;;;;;;5.80;2.10;;;;;;;15.69;74.59;101026.28;7394481;19;20082;-72
2023/08/28 01:58:44;;;;;;;5.25;2.40;;;;;;;15.63;74.93;101029.47;7395091;19;20365;-72
2023/08/28 02:01:12;;;;;;;4.97;2.40;;;;;;;15.61;75.08;101026.94;7392689;19;20015;-72
2023/08/28 02:03:39;;;;;;;6.00;2.22;;;;;;;15.52;75.25;101030.44;7395007;19;20677;-72
2023/08/28 02:06:07;;;;;;;8.68;2.30;;;;;;;15.62;75.00;101017.94;7395016;19;20425;-71
2023/08/28 02:08:35;;;;;;;4.95;2.00;;;;;;;15.61;74.95;101021.59;7395327;19;20025;-71
2023/08/28 02:11:03;;;;;;;7.00;2.60;;;;;;;15.57;75.06;101026.38;7392775;19;20014;-71
2023/08/28 02:13:31;;;;;;;4.50;2.20;;;;;;;15.52;75.45;101020.59;7393800;19;20036;-71
2023/08/28 02:16:00;;;;;;;5.25;2.35;;;;;;;15.54;75.10;101020.47;7393340;19;20361;-71
2023/08/28 02:18:28;;;;;;;6.07;2.13;;;;;;;15.45;75.47;101023.97;7394762;19;20026;-72
2023/08/28 02:20:56;;;;;;;5.28;2.20;;;;;;;15.49;75.52;101022.69;7391838;19;20039;-71
2023/08/28 02:23:25;;;;;;;7.13;2.60;;;;;;;15.38;75.68;101020.16;7394010;19;20043;-72
2023/08/28 02:25:53;;;;;;;4.72;2.30;;;;;;;15.41;75.58;101028.72;7392984;19;20021;-62
2023/08/28 02:28:21;;;;;;;5.13;2.42;;;;;;;15.47;75.42;101040.69;7392746;19;20018;-61
2023/08/28 02:30:49;;;;;;;4.28;2.30;;;;;;;15.45;75.60;101043.47;7393439;19;20018;-62
2023/08/28 02:33:17;;;;;;;4.57;2.33;;;;;;;15.48;75.43;101050.38;7393942;19;20022;-62
2023/08/28 02:35:44;;;;;;;7.10;2.70;;;;;;;15.53;74.99;101061.47;7393871;19;20092;-62
2023/08/28 02:38:12;;;;;;;6.20;2.83;;;;;;;15.46;75.57;101060.38;7394198;19;20080;-62
2023/08/28 02:40:40;;;;;;;5.53;2.78;;;;;;;15.48;75.12;101055.72;7393385;19;20019;-61
2023/08/28 02:43:07;;;;;;;4.90;2.70;;;;;;;15.50;74.98;101054.59;7392076;19;20026;-62
2023/08/28 02:45:39;;;;;;;5.90;2.50;;;;;;;15.54;75.12;101055.19;7393749;19;20022;-62
2023/08/28 02:48:11;;;;;;;8.82;3.20;;;;;;;15.44;75.22;101063.16;7393584;19;20015;-62
2023/08/28 02:50:38;;;;;;;6.50;3.25;;;;;;;15.42;75.23;101061.63;7392785;19;20014;-62
2023/08/28 02:53:06;;;;;;;7.13;3.33;;;;;;;15.37;75.61;101062.00;7393716;19;20018;-62
2023/08/28 02:55:41;;;;;;;8.68;3.38;;;;;;;15.39;75.37;101060.06;7391682;19;20018;-62
2023/08/28 02:58:09;;;;;;;5.22;3.00;;;;;;;15.35;75.44;101054.16;7393531;19;20363;-62
2023/08/28 03:00:41;;;;;;;6.75;3.40;;;;;;;15.29;75.69;101059.19;7392265;19;20050;-62
2023/08/28 03:03:08;;;;;;;7.55;3.67;;;;;;;15.29;75.82;101054.69;7393015;19;20051;-62
2023/08/28 03:05:36;;;;;;;6.75;3.42;;;;;;;15.39;75.51;101044.03;7392185;19;20023;-62
2023/08/28 03:08:03;;;;;;;7.03;3.22;;;;;;;15.48;75.17;101047.72;7393037;19;20015;-62
2023/08/28 03:10:31;;;;;;;6.45;3.53;;;;;;;15.42;75.24;101056.28;7392505;19;20018;-62
2023/08/28 03:12:58;;;;;;;5.45;3.50;;;;;;;15.36;75.54;101046.97;7392409;19;20030;-62
2023/08/28 03:15:26;;;;;;;6.93;3.90;;;;;;;15.36;75.46;101046.97;7391607;19;20045;-62
2023/08/28 03:17:53;;;;;;;9.10;3.53;;;;;;;15.36;75.49;101050.50;7393327;19;20011;-62
2023/08/28 03:20:21;;;;;;;6.85;3.78;;;;;;;15.30;75.77;101050.19;7390711;19;20014;-62
2023/08/28 03:22:48;;;;;;;8.43;3.72;;;;;;;15.34;75.55;101063.16;7390543;19;20015;-62
2023/08/28 03:25:16;;;;;;;6.43;3.70;;;;;;;15.33;75.49;101068.59;7392380;19;20021;-62
2023/08/28 03:27:43;;;;;;;8.98;4.00;;;;;;;15.34;75.91;101079.16;7390754;19;20366;-62
2023/08/28 03:30:10;;;;;;;8.05;3.72;;;;;;;15.39;75.58;101083.25;7392082;19;20027;-61
2023/08/28 03:32:38;;;;;;;7.22;4.05;;;;;;;15.37;75.51;101091.38;7392047;19;20018;-62
2023/08/28 03:35:06;;;;;;;8.55;4.15;;;;;;;15.38;75.58;101101.09;7390231;19;20019;-62
2023/08/28 03:37:33;;;;;;;9.32;4.55;;;;;;;15.27;75.63;101101.19;7391975;19;20044;-62
2023/08/28 03:40:01;;;;;;;6.80;3.78;;;;;;;15.30;75.75;101104.44;7392479;19;20355;-61
2023/08/28 03:42:31;;;;;;;8.00;4.25;;;;;;;15.38;75.50;101110.88;7390378;19;20018;-61
2023/08/28 03:44:59;;;;;;;8.52;3.63;;;;;;;15.29;75.52;101097.38;7392340;19;20019;-62
2023/08/28 03:47:26;;;;;;;8.75;3.92;;;;;;;15.29;75.39;101102.72;7392040;19;20011;-62
2023/08/28 03:49:54;;;;;;;7.13;3.90;;;;;;;15.25;75.59;101117.31;7391603;19;20025;-60
2023/08/28 03:52:21;;;;;;;7.07;4.10;;;;;;;15.28;75.41;101116.19;7388804;19;20623;-61
2023/08/28 03:54:48;;;;;;;8.10;4.28;;;;;;;15.26;75.49;101124.34;7389996;19;20035;-62
2023/08/28 03:57:16;;;;;;;6.45;4.00;;;;;;;15.33;75.28;101127.31;7390595;19;20364;-62
2023/08/28 03:59:43;;;;;;;8.43;3.72;;;;;;;15.26;75.32;101124.34;7390947;19;20031;-61
2023/08/28 04:02:10;;;;;;;8.18;4.22;;;;;;;15.20;75.87;101124.88;7391155;19;20047;-61
2023/08/28 04:04:38;;;;;;;7.40;3.90;;;;;;;15.14;75.71;101120.06;7395091;19;20019;-61
2023/08/28 04:07:05;;;;;;;6.22;4.05;;;;;;;15.03;76.55;101126.34;7392715;19;20017;-61
2023/08/28 04:09:33;;;;;;;6.63;4.15;;;;;;;15.03;76.49;101138.81;7391645;19;20077;-61
2023/08/28 04:12:01;;;;;;;10.82;4.07;;;;;;;15.03;76.57;101142.38;7387749;19;20046;-61
2023/08/28 04:14:28;;;;;;;9.45;4.18;;;;;;;15.10;76.24;101131.97;7390919;19;20026;-61
2023/08/28 04:16:55;;;;;;;7.25;4.18;;;;;;;15.14;76.14;101140.56;7389728;19;20488;-62
2023/08/28 04:19:23;;;;;;;8.02;4.75;;;;;;;15.15;75.94;101132.44;7390610;19;20491;-62
2023/08/28 04:21:50;;;;;;;7.57;4.50;;;;;;;15.13;75.95;101137.06;7389020;19;20030;-62
2023/08/28 04:24:17;;;;;;;7.28;4.10;;;;;;;15.18;75.82;101139.31;7390473;19;20023;-62
2023/08/28 04:26:47;;;;;;;7.20;4.22;;;;;;;15.21;75.59;101139.91;7390884;19;20021;-62
2023/08/28 04:29:15;;;;;;;8.13;4.57;;;;;;;15.19;75.76;101135.69;7390538;19;20039;-62
2023/08/28 04:31:42;;;;;;;7.80;4.20;;;;;;;15.07;75.88;101113.56;7386901;19;20019;-61
2023/08/28 04:34:09;;;;;;;8.05;4.50;;;;;;;15.00;76.24;101101.78;7396809;19;20035;-62
2023/08/28 04:36:37;;;;;;;7.80;4.72;;;;;;;14.89;76.57;101100.03;7398181;19;20097;-61
2023/08/28 04:39:04;;;;;;;9.13;4.85;;;;;;;14.94;76.74;101107.63;7401532;19;20035;-62
2023/08/28 04:41:32;;;;;;;10.60;4.60;;;;;;;15.04;76.35;101101.38;7394031;19;20014;-62
2023/08/28 04:44:00;;;;;;;11.18;4.90;;;;;;;15.13;75.87;101097.03;7396296;19;20018;-62
2023/08/28 04:46:28;;;;;;;8.20;4.25;;;;;;;15.22;75.85;101101.56;7397980;19;20018;-62
2023/08/28 04:48:55;;;;;;;9.02;4.70;;;;;;;15.22;75.81;101095.38;7397073;19;20042;-62
2023/08/28 04:51:23;;;;;;;8.95;5.20;;;;;;;15.16;76.22;101095.94;7396771;19;20093;-62
2023/08/28 04:53:50;;;;;;;10.63;5.60;;;;;;;15.17;76.15;101097.63;7397396;19;20029;-62
2023/08/28 04:56:17;;;;;;;8.38;5.15;;;;;;;15.22;76.00;101088.22;7394574;19;20014;-62
2023/08/28 04:58:45;;;;;;;9.77;5.60;;;;;;;15.17;76.19;101086.94;7397165;19;20019;-62
2023/08/28 05:01:12;;;;;;;11.13;5.45;;;;;;;15.17;76.26;101086.94;7395460;19;20359;-62
2023/08/28 05:03:40;;;;;;;9.07;5.35;;;;;;;15.20;76.17;101084.03;7395239;19;20022;-61
2023/08/28 05:06:07;;;;;;;7.10;4.57;;;;;;;15.19;76.20;101087.69;7396893;19;20042;-62
2023/08/28 05:08:35;;;;;;;11.25;5.10;;;;;;;15.12;76.62;101090.03;7396950;19;20018;-63
2023/08/28 05:11:04;;;;;;;10.15;4.88;;;;;;;15.12;76.45;101090.03;7395107;19;20023;-62
2023/08/28 05:13:31;;;;;;;9.23;5.03;;;;;;;15.17;76.44;101095.78;7396257;19;20014;-62
2023/08/28 05:15:59;;;;;;;9.82;5.20;;;;;;;15.14;76.39;101085.38;7394292;19;20047;-62
2023/08/28 05:18:27;;;;;;;10.48;5.43;;;;;;;15.15;76.34;101081.75;7396947;19;20031;-60
2023/08/28 05:20:54;;;;;;;10.38;5.13;;;;;;;15.22;76.16;101080.22;7394361;19;20018;-62
2023/08/28 05:23:25;;;;;;;11.25;5.20;;;;;;;15.26;76.02;101068.31;7396003;19;20015;-63
2023/08/28 05:25:53;;;;;;;10.80;5.03;;;;;;;15.23;76.09;101065.06;7396459;19;20074;-62
2023/08/28 05:28:21;;;;;;;10.00;4.78;;;;;;;15.30;75.63;101074.19;7396133;19;20341;-62
2023/08/28 05:30:48;;;;;;;9.07;5.25;;;;;;;15.27;75.74;101067.34;7394763;19;20599;-63
2023/08/28 05:33:16;;;;;;;11.75;5.53;;;;;;;15.30;75.58;101060.84;7394114;19;20029;-62
2023/08/28 05:35:43;;;;;;;11.27;5.22;;;;;;;15.21;75.80;101057.19;7394681;19;20019;-63
2023/08/28 05:38:11;;;;;;;9.65;4.75;;;;;;;15.19;76.01;101058.31;7396285;19;20122;-61
2023/08/28 05:40:38;;;;;;;11.38;5.70;;;;;;;15.18;76.25;101051.28;7394819;19;20046;-60
2023/08/28 05:43:07;;;;;;;8.77;5.32;;;;;;;15.20;76.17;101062.69;7395339;19;20346;-60
2023/08/28 05:45:34;;;;;;;8.80;4.70;;;;;;;15.25;76.02;101069.28;7394751;19;20019;-62
2023/08/28 05:48:02;;;;;;;8.35;4.80;;;;;;;15.28;76.04;101065.50;7395446;19;20046;-61
2023/08/28 05:50:29;;;;;;;8.38;4.30;;;;;;;15.31;75.75;101074.09;7394098;19;20480;-61
2023/08/28 05:52:57;;;;;;;7.70;4.55;;;;;;;15.30;76.00;101077.75;7393555;19;20346;-62
2023/08/28 05:55:24;;;;;;;8.30;4.80;;;;;;;15.33;76.07;101082.78;7392703;19;20018;-62
2023/08/28 05:57:52;;;;;;;8.73;4.93;;;;;;;15.35;75.87;101083.50;7395533;19;20098;-61
2023/08/28 06:00:19;;;;;;;8.27;4.85;;;;;;;15.36;75.97;101087.00;7393444;19;20024;-62
2023/08/28 06:02:47;;;;;;;9.00;5.30;;;;;;;15.40;75.80;101083.09;7394961;19;20496;-62
2023/08/28 06:05:14;;;;;;;7.65;5.18;;;;;;;15.43;75.62;101087.31;7394572;19;20394;-62
2023/08/28 06:07:42;;;;;;;8.93;4.85;;;;;;;15.42;75.63;101096.31;7395650;19;20365;-63
2023/08/28 06:10:12;;;;;;;9.30;4.90;;;;;;;15.43;75.66;101093.50;7395895;19;20038;-62
2023/08/28 06:12:39;;;;;;;9.10;5.20;;;;;;;15.48;75.56;101103.75;7395564;19;20050;-62
2023/08/28 06:15:07;;;;;;;8.95;4.97;;;;;;;15.47;75.54;101097.59;7395337;19;20035;-62
2023/08/28 06:17:34;;;;;;;8.13;5.20;;;;;;;15.52;75.46;101095.34;7396672;19;20022;-62
2023/08/28 06:20:04;;;;;;;8.38;5.53;;;;;;;15.53;75.35;101101.50;7398304;19;20019;-61
2023/08/28 06:22:32;;;;;;;9.30;5.50;;;;;;;15.42;75.86;101105.16;7392697;19;20022;-61
2023/08/28 06:25:00;;;;;;;8.65;5.40;;;;;;;15.55;75.63;101110.25;7393195;19;20030;-62
2023/08/28 06:27:28;;;;;;;9.65;5.22;;;;;;;15.59;75.45;101114.34;7394953;19;20014;-61
2023/08/28 06:29:55;;;;;;;9.02;5.47;;;;;;;15.51;75.62;101117.69;7394125;19;20042;-61
2023/08/28 06:32:22;;;;;;;10.43;5.40;;;;;;;15.52;75.75;101118.53;7393607;19;20010;-62
2023/08/28 06:34:50;;;;;;;10.38;5.45;;;;;;;15.58;75.44;101118.00;7392632;19;20023;-61
2023/08/28 06:37:17;;;;;;;12.05;5.80;;;;;;;15.68;75.17;101123.38;7394481;19;20430;-61
2023/08/28 06:39:45;;;;;;;12.95;5.47;;;;;;;15.64;75.30;101128.09;7394010;19;20027;-61
2023/08/28 06:42:12;;;;;;;8.65;5.20;;;;;;;15.78;75.00;101135.75;7389909;19;20019;-62
2023/08/28 06:44:39;;;;;;;9.18;5.20;;;;;;;15.78;75.29;101132.25;7394751;19;20018;-61
2023/08/28 06:47:07;;;;;;;9.20;5.47;;;;;;;15.84;75.03;101115.69;7394712;19;20043;-61
2023/08/28 06:49:34;;;;;;;9.85;5.60;;;;;;;15.81;75.00;101123.97;7393897;19;20039;-61
2023/08/28 06:52:03;;;;;;;9.07;5.70;;;;;;;15.80;75.19;101123.13;7391456;19;20018;-61
2023/08/28 06:54:34;;;;;;;8.75;4.63;;;;;;;15.83;75.24;101127.34;7394092;19;20525;-61
2023/08/28 06:57:17;;;;;;;8.13;5.55;;;;;;;15.83;75.27;101133.53;7391388;19;20020;-61
2023/08/28 06:59:45;;;;;;;10.68;5.00;;;;;;;15.89;75.14;101131.28;7393377;19;20015;-61
2023/08/28 07:02:12;;;;;;;9.40;5.93;;;;;;;15.95;75.00;101126.25;7391250;19;20027;-61
2023/08/28 07:04:40;;;;;;;8.48;5.15;;;;;;;15.97;75.04;101134.97;7393516;19;20082;-61
2023/08/28 07:07:07;;;;;;;9.48;4.95;;;;;;;16.00;74.87;101136.50;7394250;19;20018;-61
2023/08/28 07:09:34;;;;;;;9.00;5.28;;;;;;;16.04;75.16;101141.44;7393086;19;20022;-61
2023/08/28 07:12:02;;;;;;;10.15;4.93;;;;;;;16.14;74.92;101140.59;7391095;19;20018;-61
2023/08/28 07:14:30;;;;;;;9.32;4.93;;;;;;;16.21;74.83;101141.72;7393236;19;20018;-61
2023/08/28 07:16:57;;;;;;;11.63;4.80;;;;;;;16.31;74.67;101154.09;7391623;19;20511;-61
2023/08/28 07:19:24;;;;;;;8.65;5.00;;;;;;;16.40;74.48;101155.09;7393027;19;20046;-61
2023/08/28 07:21:52;;;;;;;10.00;4.70;;;;;;;16.49;74.38;101156.09;7390593;19;20033;-61
2023/08/28 07:24:19;;;;;;;9.63;4.47;;;;;;;16.49;74.19;101154.25;7392933;19;20021;-62
2023/08/28 07:26:47;;;;;;;9.20;4.10;;;;;;;16.54;74.01;101164.53;7392969;19;20014;-61
2023/08/28 07:29:14;;;;;;;7.07;4.00;;;;;;;16.52;73.92;101169.16;7392988;19;20051;-62
2023/08/28 07:31:41;;;;;;;7.10;3.67;;;;;;;16.53;73.97;101170.88;7390213;19;20035;-62
2023/08/28 07:34:09;;;;;;;6.43;3.95;;;;;;;16.54;74.21;101169.88;7392428;19;20500;-61
2023/08/28 07:36:37;;;;;;;7.03;4.10;;;;;;;16.56;74.07;101174.09;7391162;19;20021;-61
2023/08/28 07:39:05;;;;;;;10.20;4.00;;;;;;;16.65;73.92;101182.25;7393387;19;20026;-62
2023/08/28 07:41:32;;;;;;;7.68;3.97;;;;;;;16.70;73.51;101179.97;7392380;19;20028;-61
2023/08/28 07:44:00;;;;;;;8.07;3.70;;;;;;;16.71;73.70;101181.66;7393405;19;20026;-61
2023/08/28 07:46:28;;;;;;;6.57;3.97;;;;;;;16.76;73.33;101177.63;7392462;19;20524;-61
2023/08/28 07:48:56;;;;;;;7.18;3.80;;;;;;;16.85;73.47;101167.03;7391945;19;20047;-61
2023/08/28 07:51:23;;;;;;;6.07;3.30;;;;;;;16.95;73.58;101178.59;7390488;19;20015;-61
2023/08/28 07:53:50;;;;;;;5.80;3.40;;;;;;;16.96;73.45;101183.78;7391029;19;20031;-62
2023/08/28 07:56:18;;;;;;;6.25;3.75;;;;;;;16.91;73.13;101180.69;7390620;19;20018;-61
2023/08/28 07:58:45;;;;;;;7.25;3.40;;;;;;;16.99;72.82;101190.69;7392459;19;20035;-62
2023/08/28 08:01:12;;;;;;;8.82;3.78;;;;;;;17.01;73.10;101194.88;7390430;19;20022;-62
2023/08/28 08:03:40;;;;;;;8.75;3.45;;;;;;;17.05;73.09;101198.97;7391316;19;20018;-61
2023/08/28 08:06:07;;;;;;;7.28;3.65;;;;;;;17.07;73.22;101195.31;7391752;19;20446;-62
2023/08/28 08:08:35;;;;;;;5.50;3.28;;;;;;;17.14;73.07;101199.09;7396960;19;20067;-61
2023/08/28 08:11:02;;;;;;;6.65;3.42;;;;;;;17.16;72.87;101199.78;7398982;19;20086;-61
2023/08/28 08:13:30;;;;;;;6.82;3.40;;;;;;;17.16;73.08;101197.94;7402643;19;20021;-61
2023/08/28 08:15:57;;;;;;;7.30;3.42;;;;;;;17.25;73.05;101197.09;7403868;19;20536;-63
2023/08/28 08:18:24;;;;;;;6.35;3.38;;;;;;;17.32;72.73;101204.53;7403895;19;20019;-62
2023/08/28 08:20:52;;;;;;;6.00;3.22;;;;;;;17.39;72.69;101208.31;7395030;19;20042;-63
2023/08/28 08:23:19;;;;;;;9.90;3.55;;;;;;;17.43;72.12;101209.72;7399019;19;20022;-64
2023/08/28 08:25:47;;;;;;;6.55;3.28;;;;;;;17.44;72.06;101198.88;7401503;19;20035;-61
2023/08/28 08:28:17;;;;;;;8.25;3.25;;;;;;;17.53;71.92;101197.13;7402876;19;20015;-61
2023/08/28 08:30:44;;;;;;;7.07;3.05;;;;;;;17.57;71.73;101197.69;7401780;19;20039;-61
2023/08/28 08:33:12;;;;;;;6.03;2.80;;;;;;;17.64;71.81;101202.31;7401995;19;20018;-62
2023/08/28 08:35:39;;;;;;;7.72;2.78;;;;;;;17.70;71.66;101196.31;7402211;19;20006;-58
2023/08/28 08:38:07;;;;;;;8.15;2.78;;;;;;;17.73;71.37;101203.25;7402643;19;20047;-61
2023/08/28 08:40:36;;;;;;;6.40;2.45;;;;;;;17.80;71.23;101203.53;7401273;19;20085;-61
2023/08/28 08:43:03;;;;;;;5.75;2.25;;;;;;;17.87;70.33;101199.25;7401985;19;20018;-61
2023/08/28 08:45:36;;;;;;;4.63;1.95;;;;;;;17.91;69.89;101201.47;7402179;19;20027;-62
2023/08/28 08:48:07;;;;;;;5.55;1.90;;;;;;;17.88;70.01;101199.09;7401711;19;20338;-61
2023/08/28 08:50:36;;;;;;;6.15;2.10;;;;;;;17.92;70.06;101197.81;7400453;19;20105;-61
2023/08/28 08:53:07;;;;;;;5.43;1.88;;;;;;;18.00;69.98;101197.91;7401487;19;20019;-62
2023/08/28 08:55:46;;;;;;;6.68;2.28;;;;;;;18.12;69.24;101201.19;7399775;19;20045;-60
2023/08/28 08:58:16;;;;;;;5.53;1.73;;;;;;;18.07;69.20;101186.59;7401819;19;20085;-61
2023/08/28 09:00:44;;;;;;;5.47;2.33;;;;;;;18.10;69.21;101191.66;7399912;19;20014;-60
2023/08/28 09:03:13;;;;;;;8.25;2.75;;;;;;;18.21;68.91;101202.16;7401487;19;20010;-63
2023/08/28 09:05:43;;;;;;;7.45;2.05;;;;;;;18.22;68.79;101202.00;7401631;19;20029;-64
2023/08/28 09:08:12;;;;;;;7.55;1.63;;;;;;;18.23;68.09;101206.34;7401210;19;20023;-60
2023/08/28 09:10:43;;;;;;;7.32;2.38;;;;;;;18.22;68.36;101206.50;7398400;19;20014;-60
2023/08/28 09:13:12;;;;;;;7.20;2.00;;;;;;;18.25;68.18;101195.50;7398989;19;20039;-60
2023/08/28 09:15:39;;;;;;;6.97;2.17;;;;;;;18.37;67.61;101206.84;7400667;19;20405;-61
2023/08/28 09:18:07;;;;;;;10.63;3.15;;;;;;;18.64;66.21;101217.47;7401253;19;20025;-60
2023/08/28 09:20:35;;;;;;;5.55;2.35;;;;;;;18.67;66.29;101210.97;7397651;19;20014;-59
2023/08/28 09:23:02;;;;;;;6.63;3.40;;;;;;;18.62;66.12;101215.94;7400049;19;20372;-58
2023/08/28 09:25:31;;;;;;;7.57;2.30;;;;;;;18.61;66.08;101211.56;7400724;19;20029;-60
2023/08/28 09:27:58;;;;;;;5.55;1.67;;;;;;;18.64;65.13;101208.59;7400523;19;20019;-60
2023/08/28 09:30:28;;;;;;;4.63;1.38;;;;;;;18.72;64.34;101201.47;7399548;19;20026;-62
2023/08/28 09:33:07;;;;;;;3.70;1.20;;;;;;;18.78;63.62;101205.41;7399030;19;20014;-62
2023/08/28 09:35:39;;;;;;;4.65;1.75;;;;;;;18.81;63.18;101204.22;7399893;19;20380;-65
2023/08/28 09:38:07;;;;;;;4.65;1.30;;;;;;;18.82;63.72;101205.94;7400243;19;20047;-62
2023/08/28 09:40:37;;;;;;;5.93;1.20;;;;;;;18.88;63.68;101206.13;7398938;19;20010;-62
2023/08/28 09:43:15;;;;;;;5.40;1.23;;;;;;;19.03;62.21;101210.94;7399803;19;20023;-58
2023/08/28 09:45:44;;;;;;;5.53;1.30;;;;;;;19.06;61.87;101203.41;7399840;19;20022;-61
2023/08/28 09:48:13;;;;;;;4.70;1.10;;;;;;;19.13;61.68;101212.53;7400523;19;20018;-62
2023/08/28 09:50:42;;;;;;;3.10;0.82;;;;;;;18.99;61.50;101207.72;7398665;19;20018;-62
2023/08/28 09:53:14;;;;;;;3.75;0.88;;;;;;;18.90;61.55;101214.88;7399583;19;20020;-62
2023/08/28 09:55:53;;;;;;;4.15;1.20;;;;;;;18.92;60.81;101209.34;7397847;19;20010;-63
2023/08/28 09:58:28;;;;;;;2.75;0.88;;;;;;;19.09;60.72;101208.47;7399258;19;20057;-60
2023/08/28 10:00:56;;;;;;;4.82;0.98;;;;;;;19.07;61.12;101210.47;7396354;19;20085;-57
2023/08/28 10:03:25;;;;;;;4.28;1.10;;;;;;;19.08;60.10;101209.47;7398932;19;20034;-61
2023/08/28 10:05:53;;;;;;;3.88;1.40;;;;;;;19.08;59.78;101201.44;7399703;19;20035;-62
2023/08/28 10:08:25;;;;;;;2.38;0.77;;;;;;;19.20;60.35;101212.75;7397424;19;20015;-63
2023/08/28 10:10:56;;;;;;;2.83;0.85;;;;;;;19.19;60.05;101208.34;7398222;19;20015;-64
2023/08/28 10:13:26;;;;;;;5.20;1.15;;;;;;;19.14;60.00;101214.19;7396792;19;20014;-61
2023/08/28 10:16:03;;;;;;;3.53;1.52;;;;;;;19.13;59.80;101204.47;7398806;19;20022;-62
2023/08/28 10:18:53;;;;;;;2.83;1.08;;;;;;;19.23;59.28;101210.59;7399331;19;20643;-62
2023/08/28 10:21:21;;;;;;;4.13;1.02;;;;;;;19.22;59.53;101211.56;7397056;19;20021;-62
2023/08/28 10:23:50;;;;;;;2.60;0.90;;;;;;;19.21;60.15;101207.19;7398431;19;20014;-63
2023/08/28 10:26:22;;;;;;;4.82;0.90;;;;;;;19.12;59.42;101208.16;7398134;19;20035;-63
2023/08/28 10:28:51;;;;;;;6.30;2.45;;;;;;;19.20;59.59;101202.00;7398728;19;20044;-63
2023/08/28 10:31:19;;;;;;;4.25;1.10;;;;;;;19.28;59.57;101204.72;7395419;19;20074;-60
2023/08/28 10:33:49;;;;;;;2.95;1.13;;;;;;;19.30;59.92;101197.34;7398179;19;20511;-63
2023/08/28 10:36:20;;;;;;;5.07;1.55;;;;;;;19.36;59.92;101201.25;7397649;19;20019;-62
2023/08/28 10:39:08;;;;;;;5.97;1.20;;;;;;;19.35;60.12;101205.78;7394564;19;20029;-64
2023/08/28 10:41:37;;;;;;;5.15;1.65;;;;;;;19.38;59.47;101193.88;7392243;19;20375;-64
2023/08/28 10:44:06;;;;;;;6.00;1.20;;;;;;;19.51;59.31;101199.66;7393875;19;20019;-64
2023/08/28 10:46:34;;;;;;;6.20;1.40;;;;;;;19.56;58.45;101200.00;7392531;19;20349;-63
2023/08/28 10:49:05;;;;;;;4.65;1.00;;;;;;;19.59;58.79;101196.16;7392446;19;20018;-62
2023/08/28 10:51:37;;;;;;;5.75;1.10;;;;;;;19.57;58.51;101190.94;7391390;19;20035;-61
2023/08/28 10:54:13;;;;;;;5.07;1.10;;;;;;;19.72;57.62;101189.34;7394039;19;20033;-61
2023/08/28 10:56:53;;;;;;;3.13;1.20;;;;;;;19.77;56.48;101186.19;7393259;19;20120;-60
2023/08/28 10:59:25;;;;;;;3.30;0.88;;;;;;;19.87;55.57;101186.03;7393138;19;20021;-60
2023/08/28 11:01:56;;;;;;;4.00;0.82;;;;;;;19.90;55.42;101178.50;7389730;19;20501;-63
2023/08/28 11:04:32;;;;;;;2.90;0.90;;;;;;;19.91;55.11;101182.88;7394234;19;20109;-64
2023/08/28 11:07:00;;;;;;;1.35;0.85;;;;;;;19.88;55.28;101176.97;7393596;19;20026;-64
2023/08/28 11:09:27;;;;;;;4.60;1.08;;;;;;;20.00;55.39;101191.81;7391691;19;20051;-63
2023/08/28 11:11:58;;;;;;;2.70;0.80;;;;;;;20.03;55.93;101193.31;7389848;19;20013;-64
2023/08/28 11:14:33;;;;;;;3.30;1.00;;;;;;;19.94;55.96;101190.59;7391834;19;20484;-63
2023/08/28 11:17:11;;;;;;;3.28;0.88;;;;;;;19.94;55.97;101195.16;7390638;19;20497;-63
2023/08/28 11:19:59;;;;;;;3.47;0.88;;;;;;;20.00;53.40;101188.28;7393103;19;20014;-64
2023/08/28 11:22:40;;;;;;;3.13;0.90;;;;;;;20.09;54.37;101185.44;7392319;19;20011;-63
2023/08/28 11:25:11;;;;;;;4.53;1.15;;;;;;;20.11;53.95;101180.75;7392964;19;20584;-63
2023/08/28 11:27:48;;;;;;;5.10;1.50;;;;;;;20.23;54.20;101185.81;7393005;19;20018;-63
2023/08/28 11:30:21;;;;;;;3.28;1.20;;;;;;;20.20;54.46;101181.59;7390482;19;20018;-63
2023/08/28 11:32:51;;;;;;;2.00;1.08;;;;;;;20.20;54.44;101178.91;7392024;19;20014;-63